Аэропорт: Габала. Габала

ICAO: UBBQ

METAR:
2018/07/22 20:00
UBBQ 222000Z 05003KT 9999 VCTS FEW040CB OVC046 25/20 Q1007 R16/CLRD// NOSIG RMK MT OBSC
METAR:
Информация по данной станции не доступна